Time;durP1;ratioP1;P1;durP2;ratioP2;P2;SDS_P1;SDS_P2;PMS_P1;PMS_P2;Temp;Humidity;BMP_temperature;BMP_pressure;BME280_temperature;BME280_humidity;BME280_pressure;Samples;Min_cycle;Max_cycle;Signal;HPM_P1;HPM_P2
2023/04/15 00:01:44;;;;;;;9.68;2.95;;;;;;;;;;4895451;29;20040;-48
2023/04/15 00:04:12;;;;;;;10.85;3.00;;;;;;;;;;4901903;29;20043;-45
2023/04/15 00:06:39;;;;;;;8.83;3.07;;;;;;;;;;4897476;29;20043;-45
2023/04/15 00:09:10;;;;;;;11.60;3.55;;;;;;;;;;4886766;29;20127;-45
2023/04/15 00:11:38;;;;;;;9.55;2.85;;;;;;;;;;4916574;29;20044;-47
2023/04/15 00:14:06;;;;;;;8.93;3.13;;;;;;;;;;4883489;29;20473;-44
2023/04/15 00:16:37;;;;;;;9.23;2.95;;;;;;;;;;4903890;29;20727;-45
2023/04/15 00:19:05;;;;;;;7.53;2.57;;;;;;;;;;4908871;29;20060;-45
2023/04/15 00:21:34;;;;;;;8.45;2.80;;;;;;;;;;4891935;29;20446;-46
2023/04/15 00:24:02;;;;;;;9.10;2.83;;;;;;;;;;4898749;29;20450;-44
2023/04/15 00:26:32;;;;;;;8.73;2.85;;;;;;;;;;4895832;29;20052;-52
2023/04/15 00:28:59;;;;;;;8.65;2.85;;;;;;;;;;4904958;29;20039;-45
2023/04/15 00:31:28;;;;;;;10.57;3.50;;;;;;;;;;4896773;29;20810;-45
2023/04/15 00:33:56;;;;;;;10.95;3.35;;;;;;;;;;4899634;29;21067;-45
2023/04/15 00:36:24;;;;;;;10.30;3.60;;;;;;;;;;4900514;29;20075;-45
2023/04/15 00:38:52;;;;;;;10.80;3.95;;;;;;;;;;4907360;29;20040;-44
2023/04/15 00:41:19;;;;;;;14.50;4.55;;;;;;;;;;4887810;29;20127;-45
2023/04/15 00:43:49;;;;;;;11.47;4.03;;;;;;;;;;4890853;29;20070;-45
2023/04/15 00:46:17;;;;;;;10.85;4.00;;;;;;;;;;4909548;29;20040;-47
2023/04/15 00:48:45;;;;;;;10.95;4.05;;;;;;;;;;4880333;29;20050;-44
2023/04/15 00:51:13;;;;;;;13.05;4.70;;;;;;;;;;4874603;29;20104;-45
2023/04/15 00:53:42;;;;;;;14.10;4.97;;;;;;;;;;4902531;29;20053;-43
2023/04/15 00:56:10;;;;;;;14.23;4.67;;;;;;;;;;4911690;29;20047;-45
2023/04/15 00:58:40;;;;;;;14.82;4.90;;;;;;;;;;4902170;29;20039;-46
2023/04/15 01:01:10;;;;;;;16.70;6.43;;;;;;;;;;4891392;29;20127;-44
2023/04/15 01:03:37;;;;;;;12.60;4.72;;;;;;;;;;4911991;29;20039;-43
2023/04/15 01:06:06;;;;;;;15.43;5.32;;;;;;;;;;4891268;29;20031;-44
2023/04/15 01:08:34;;;;;;;15.07;5.77;;;;;;;;;;4911462;29;20036;-44
2023/04/15 01:11:02;;;;;;;12.63;4.85;;;;;;;;;;4898954;29;20047;-44
2023/04/15 01:13:31;;;;;;;16.92;6.07;;;;;;;;;;4911117;29;20074;-43
2023/04/15 01:15:58;;;;;;;16.08;5.10;;;;;;;;;;4896861;29;20139;-44
2023/04/15 01:18:28;;;;;;;14.30;5.82;;;;;;;;;;4897746;29;20099;-44
2023/04/15 01:20:56;;;;;;;13.53;5.17;;;;;;;;;;4904251;29;20076;-44
2023/04/15 01:23:24;;;;;;;14.38;5.95;;;;;;;;;;4902556;29;20083;-45
2023/04/15 01:25:56;;;;;;;14.98;5.10;;;;;;;;;;4910550;29;20036;-44
2023/04/15 01:28:24;;;;;;;18.33;6.70;;;;;;;;;;4902361;29;20126;-44
2023/04/15 01:31:04;;;;;;;16.50;6.22;;;;;;;;;;4908557;29;20111;-43
2023/04/15 01:33:32;;;;;;;17.20;6.60;;;;;;;;;;4892395;29;20044;-45
2023/04/15 01:36:00;;;;;;;13.32;5.57;;;;;;;;;;4877967;29;20036;-44
2023/04/15 01:38:36;;;;;;;17.08;6.65;;;;;;;;;;4906188;29;20940;-45
2023/04/15 01:41:07;;;;;;;17.85;6.25;;;;;;;;;;4893951;29;20044;-44
2023/04/15 01:43:34;;;;;;;18.27;6.80;;;;;;;;;;4885867;29;20044;-43
2023/04/15 01:46:02;;;;;;;16.70;6.63;;;;;;;;;;4905073;29;20095;-43
2023/04/15 01:48:31;;;;;;;13.23;5.05;;;;;;;;;;4894409;29;20424;-44
2023/04/15 01:50:58;;;;;;;18.50;6.90;;;;;;;;;;4907952;29;20050;-44
2023/04/15 01:53:26;;;;;;;14.10;5.32;;;;;;;;;;4880317;29;20128;-44
2023/04/15 01:55:54;;;;;;;13.57;5.45;;;;;;;;;;4886187;29;20685;-43
2023/04/15 01:58:23;;;;;;;17.53;6.73;;;;;;;;;;4877478;29;20070;-45
2023/04/15 02:00:51;;;;;;;16.35;5.90;;;;;;;;;;4865174;29;20335;-45
2023/04/15 02:03:19;;;;;;;17.20;6.18;;;;;;;;;;4896179;29;20118;-43
2023/04/15 02:05:46;;;;;;;15.98;6.32;;;;;;;;;;4899647;29;20123;-44
2023/04/15 02:08:14;;;;;;;15.90;6.45;;;;;;;;;;4890216;29;20063;-44
2023/04/15 02:10:42;;;;;;;15.87;6.40;;;;;;;;;;4895953;29;20091;-47
2023/04/15 02:13:10;;;;;;;19.85;6.90;;;;;;;;;;4913598;29;20052;-43
2023/04/15 02:15:39;;;;;;;15.77;6.07;;;;;;;;;;4872244;29;20064;-44
2023/04/15 02:18:07;;;;;;;18.90;6.50;;;;;;;;;;4906113;29;20099;-44
2023/04/15 02:20:35;;;;;;;17.27;6.28;;;;;;;;;;4899937;29;20099;-44
2023/04/15 02:23:06;;;;;;;19.43;6.70;;;;;;;;;;4886411;29;20039;-44
2023/04/15 02:25:33;;;;;;;14.77;5.57;;;;;;;;;;4890730;29;20075;-44
2023/04/15 02:28:01;;;;;;;17.23;6.28;;;;;;;;;;4884182;29;20040;-45
2023/04/15 02:30:29;;;;;;;14.18;5.78;;;;;;;;;;4901010;29;20068;-44
2023/04/15 02:32:58;;;;;;;15.23;5.72;;;;;;;;;;4898228;29;20095;-45
2023/04/15 02:35:26;;;;;;;16.60;5.87;;;;;;;;;;4889943;29;20050;-45
2023/04/15 02:37:53;;;;;;;13.90;4.88;;;;;;;;;;4907776;29;20507;-44
2023/04/15 02:40:21;;;;;;;14.80;5.82;;;;;;;;;;4895708;29;20043;-44
2023/04/15 02:42:49;;;;;;;15.80;5.55;;;;;;;;;;4895576;29;20058;-43
2023/04/15 02:45:19;;;;;;;12.40;5.10;;;;;;;;;;4899128;29;20131;-45
2023/04/15 02:47:46;;;;;;;18.27;6.20;;;;;;;;;;4894592;29;20044;-44
2023/04/15 02:50:16;;;;;;;10.98;4.82;;;;;;;;;;4877645;29;20664;-43
2023/04/15 02:52:44;;;;;;;13.70;4.82;;;;;;;;;;4882487;29;20067;-44
2023/04/15 02:55:12;;;;;;;16.75;5.55;;;;;;;;;;4909711;29;20075;-43
2023/04/15 02:57:40;;;;;;;10.65;4.75;;;;;;;;;;4896611;29;20044;-44
2023/04/15 03:00:10;;;;;;;16.27;5.30;;;;;;;;;;4898216;29;20114;-43
2023/04/15 03:02:39;;;;;;;10.55;4.32;;;;;;;;;;4892294;29;20047;-44
2023/04/15 03:05:08;;;;;;;13.38;5.00;;;;;;;;;;4908766;29;20098;-43
2023/04/15 03:07:37;;;;;;;13.38;4.95;;;;;;;;;;4896670;29;20606;-43
2023/04/15 03:10:05;;;;;;;12.05;5.07;;;;;;;;;;4907679;29;20123;-46
2023/04/15 03:12:32;;;;;;;10.47;4.30;;;;;;;;;;4865948;29;20113;-45
2023/04/15 03:15:05;;;;;;;14.75;5.07;;;;;;;;;;4895399;29;20480;-48
2023/04/15 03:17:35;;;;;;;13.40;4.95;;;;;;;;;;4888820;29;20802;-44
2023/04/15 03:20:04;;;;;;;13.90;5.20;;;;;;;;;;4906436;29;20050;-44
2023/04/15 03:22:32;;;;;;;16.40;5.50;;;;;;;;;;4895436;29;20071;-43
2023/04/15 03:25:02;;;;;;;15.43;5.33;;;;;;;;;;4892125;29;20084;-44
2023/04/15 03:27:30;;;;;;;13.93;4.53;;;;;;;;;;4910779;29;20111;-45
2023/04/15 03:29:58;;;;;;;15.32;5.53;;;;;;;;;;4879047;29;20040;-45
2023/04/15 03:32:26;;;;;;;15.32;5.22;;;;;;;;;;4883997;29;20063;-43
2023/04/15 03:34:53;;;;;;;17.60;5.63;;;;;;;;;;4900219;29;20562;-46
2023/04/15 03:37:21;;;;;;;16.13;5.47;;;;;;;;;;4888829;29;20103;-44
2023/04/15 03:39:49;;;;;;;14.65;4.93;;;;;;;;;;4897624;29;20048;-45
2023/04/15 03:42:18;;;;;;;16.45;5.30;;;;;;;;;;4910589;29;20039;-48
2023/04/15 03:44:46;;;;;;;15.10;5.40;;;;;;;;;;4891783;29;20079;-44
2023/04/15 03:47:14;;;;;;;12.52;5.00;;;;;;;;;;4902331;29;20328;-44
2023/04/15 03:49:42;;;;;;;14.30;4.87;;;;;;;;;;4900566;29;20498;-42
2023/04/15 03:52:10;;;;;;;12.55;5.22;;;;;;;;;;4898366;29;20075;-43
2023/04/15 03:54:38;;;;;;;13.13;4.85;;;;;;;;;;4902168;29;20052;-44
2023/04/15 03:57:06;;;;;;;12.30;5.05;;;;;;;;;;4897385;29;20044;-43
2023/04/15 03:59:35;;;;;;;15.23;4.65;;;;;;;;;;4891844;29;20135;-44
2023/04/15 04:02:03;;;;;;;14.43;5.23;;;;;;;;;;4882552;29;21400;-46
2023/04/15 04:04:30;;;;;;;12.77;4.63;;;;;;;;;;4912176;29;20049;-43
2023/04/15 04:06:58;;;;;;;17.67;4.60;;;;;;;;;;4884315;29;20044;-43
2023/04/15 04:09:26;;;;;;;13.25;4.93;;;;;;;;;;4903562;29;20043;-43
2023/04/15 04:11:55;;;;;;;14.23;4.68;;;;;;;;;;4898646;29;20134;-43
2023/04/15 04:14:28;;;;;;;11.50;4.60;;;;;;;;;;4882640;29;20148;-44
2023/04/15 04:16:57;;;;;;;14.18;4.88;;;;;;;;;;4902413;29;20127;-44
2023/04/15 04:19:25;;;;;;;11.57;4.80;;;;;;;;;;4893973;29;20577;-44
2023/04/15 04:21:52;;;;;;;12.38;4.40;;;;;;;;;;4904890;29;20115;-44
2023/04/15 04:24:20;;;;;;;15.00;4.95;;;;;;;;;;4877000;29;20749;-44
2023/04/15 04:26:48;;;;;;;15.70;5.67;;;;;;;;;;4905590;29;20059;-45
2023/04/15 04:29:16;;;;;;;13.02;5.22;;;;;;;;;;4918078;29;20087;-52
2023/04/15 04:31:43;;;;;;;12.77;5.50;;;;;;;;;;4905970;29;20119;-44
2023/04/15 04:34:12;;;;;;;13.43;4.50;;;;;;;;;;4892537;29;20044;-45
2023/04/15 04:36:40;;;;;;;15.20;5.22;;;;;;;;;;4893157;29;20122;-44
2023/04/15 04:39:08;;;;;;;13.53;5.10;;;;;;;;;;4901133;29;20079;-44
2023/04/15 04:41:35;;;;;;;14.90;4.47;;;;;;;;;;4902497;29;20495;-44
2023/04/15 04:44:03;;;;;;;14.25;5.50;;;;;;;;;;4889763;29;20062;-46
2023/04/15 04:46:31;;;;;;;12.70;4.70;;;;;;;;;;4885886;29;20043;-44
2023/04/15 04:48:59;;;;;;;16.02;5.32;;;;;;;;;;4907185;29;20067;-43
2023/04/15 04:51:28;;;;;;;12.57;4.87;;;;;;;;;;4884397;29;20036;-44
2023/04/15 04:53:56;;;;;;;11.85;4.53;;;;;;;;;;4903267;29;20044;-43
2023/04/15 04:56:23;;;;;;;11.52;4.68;;;;;;;;;;4886318;29;21161;-44
2023/04/15 04:58:51;;;;;;;11.52;4.13;;;;;;;;;;4908944;29;20118;-44
2023/04/15 05:01:19;;;;;;;11.95;4.80;;;;;;;;;;4904313;29;20056;-44
2023/04/15 05:03:47;;;;;;;11.87;4.70;;;;;;;;;;4888410;29;20052;-44
2023/04/15 05:06:15;;;;;;;12.75;4.68;;;;;;;;;;4899505;29;20380;-44
2023/04/15 05:08:45;;;;;;;13.32;5.32;;;;;;;;;;4895450;29;20055;-46
2023/04/15 05:11:13;;;;;;;13.35;4.70;;;;;;;;;;4908085;29;20055;-43
2023/04/15 05:13:43;;;;;;;14.95;5.47;;;;;;;;;;4898354;29;20549;-44
2023/04/15 05:16:12;;;;;;;13.83;5.10;;;;;;;;;;4906962;29;20092;-44
2023/04/15 05:18:39;;;;;;;13.30;4.93;;;;;;;;;;4886824;29;20061;-43
2023/04/15 05:21:07;;;;;;;17.42;5.00;;;;;;;;;;4912843;29;20515;-44
2023/04/15 05:23:35;;;;;;;12.32;4.25;;;;;;;;;;4895426;29;20115;-44
2023/04/15 05:26:03;;;;;;;13.15;4.68;;;;;;;;;;4908235;29;20158;-43
2023/04/15 05:28:31;;;;;;;12.60;4.37;;;;;;;;;;4901791;29;20070;-44
2023/04/15 05:30:59;;;;;;;12.50;4.90;;;;;;;;;;4903506;29;20044;-45
2023/04/15 05:33:27;;;;;;;10.98;4.22;;;;;;;;;;4882553;29;20051;-46
2023/04/15 05:35:55;;;;;;;13.27;4.40;;;;;;;;;;4904952;29;20063;-43
2023/04/15 05:38:22;;;;;;;14.18;4.35;;;;;;;;;;4890596;29;20083;-43
2023/04/15 05:40:51;;;;;;;14.10;4.40;;;;;;;;;;4911598;29;20071;-43
2023/04/15 05:43:21;;;;;;;12.93;3.83;;;;;;;;;;4891924;29;20076;-44
2023/04/15 05:45:49;;;;;;;14.05;4.82;;;;;;;;;;4899165;29;20155;-44
2023/04/15 05:48:17;;;;;;;13.13;4.53;;;;;;;;;;4893074;29;20122;-43
2023/04/15 05:50:44;;;;;;;14.73;4.57;;;;;;;;;;4898999;29;20044;-44
2023/04/15 05:53:12;;;;;;;13.20;4.17;;;;;;;;;;4892047;29;20303;-44
2023/04/15 05:55:39;;;;;;;13.88;4.40;;;;;;;;;;4902984;29;20107;-43
2023/04/15 05:58:07;;;;;;;12.23;3.95;;;;;;;;;;4885452;29;20146;-43
2023/04/15 06:00:36;;;;;;;13.80;4.30;;;;;;;;;;4895675;29;20102;-46
2023/04/15 06:03:05;;;;;;;12.63;3.90;;;;;;;;;;4868300;29;20046;-44
2023/04/15 06:05:33;;;;;;;14.03;4.23;;;;;;;;;;4898044;29;20450;-44
2023/04/15 06:08:01;;;;;;;11.00;3.78;;;;;;;;;;4899863;29;20130;-44
2023/04/15 06:10:29;;;;;;;15.02;4.70;;;;;;;;;;4889764;29;20462;-44
2023/04/15 06:12:57;;;;;;;15.88;4.55;;;;;;;;;;4905199;29;20498;-45
2023/04/15 06:15:24;;;;;;;11.05;4.07;;;;;;;;;;4891967;29;20064;-46
2023/04/15 06:17:53;;;;;;;11.27;3.60;;;;;;;;;;4887543;29;20042;-44
2023/04/15 06:20:21;;;;;;;14.05;4.90;;;;;;;;;;4899425;29;20462;-45
2023/04/15 06:23:09;;;;;;;10.60;4.00;;;;;;;;;;4891050;29;20560;-47
2023/04/15 06:25:37;;;;;;;13.93;4.85;;;;;;;;;;4898215;29;20104;-45
2023/04/15 06:28:09;;;;;;;12.43;4.40;;;;;;;;;;4884459;29;20046;-44
2023/04/15 06:30:37;;;;;;;13.07;4.73;;;;;;;;;;4905569;29;20772;-44
2023/04/15 06:33:06;;;;;;;12.15;4.13;;;;;;;;;;4895414;29;20596;-47
2023/04/15 06:35:34;;;;;;;14.43;5.10;;;;;;;;;;4892425;29;20051;-45
2023/04/15 06:38:02;;;;;;;14.45;4.50;;;;;;;;;;4897026;29;20866;-43
2023/04/15 06:40:30;;;;;;;14.00;4.65;;;;;;;;;;4902054;29;20099;-44
2023/04/15 06:42:57;;;;;;;14.00;4.63;;;;;;;;;;4900521;29;20494;-44
2023/04/15 06:45:25;;;;;;;13.48;4.68;;;;;;;;;;4897760;29;20100;-46
2023/04/15 06:47:53;;;;;;;14.63;5.65;;;;;;;;;;4871701;29;20126;-44
2023/04/15 06:50:22;;;;;;;13.50;5.05;;;;;;;;;;4894995;29;20050;-44
2023/04/15 06:52:52;;;;;;;13.48;5.47;;;;;;;;;;4902077;29;20048;-47
2023/04/15 06:55:20;;;;;;;17.40;4.93;;;;;;;;;;4905664;29;20052;-43
2023/04/15 06:57:47;;;;;;;18.67;5.35;;;;;;;;;;4895089;29;20031;-44
2023/04/15 07:00:16;;;;;;;20.23;5.80;;;;;;;;;;4898458;29;20562;-44
2023/04/15 07:02:44;;;;;;;16.52;5.07;;;;;;;;;;4897006;29;20114;-43
2023/04/15 07:05:12;;;;;;;13.65;5.38;;;;;;;;;;4891282;29;20486;-43
2023/04/15 07:07:41;;;;;;;14.80;5.77;;;;;;;;;;4907426;29;20071;-44
2023/04/15 07:10:10;;;;;;;16.13;6.00;;;;;;;;;;4891922;29;20047;-44
2023/04/15 07:12:38;;;;;;;18.48;7.22;;;;;;;;;;4892336;29;20043;-45
2023/04/15 07:15:06;;;;;;;20.42;6.97;;;;;;;;;;4897265;29;20052;-43
2023/04/15 07:17:34;;;;;;;19.70;7.10;;;;;;;;;;4888348;29;20039;-44
2023/04/15 07:20:03;;;;;;;17.37;6.93;;;;;;;;;;4896395;28;20036;-42
2023/04/15 07:22:31;;;;;;;16.38;5.95;;;;;;;;;;4885953;29;20405;-44
2023/04/15 07:25:00;;;;;;;17.67;6.32;;;;;;;;;;4881972;29;20416;-44
2023/04/15 07:27:28;;;;;;;16.55;6.50;;;;;;;;;;4906628;29;20052;-46
2023/04/15 07:29:56;;;;;;;19.05;6.45;;;;;;;;;;4889619;29;20052;-44
2023/04/15 07:32:28;;;;;;;15.10;5.90;;;;;;;;;;4887408;29;20044;-44
2023/04/15 07:34:55;;;;;;;14.63;5.47;;;;;;;;;;4899931;29;20127;-45
2023/04/15 07:37:27;;;;;;;15.02;5.55;;;;;;;;;;4910745;29;20109;-44
2023/04/15 07:39:56;;;;;;;15.60;5.80;;;;;;;;;;4892652;29;20103;-44
2023/04/15 07:42:25;;;;;;;15.23;5.82;;;;;;;;;;4897651;29;20095;-43
2023/04/15 07:44:52;;;;;;;14.73;5.80;;;;;;;;;;4895979;29;20483;-44
2023/04/15 07:47:20;;;;;;;13.77;5.10;;;;;;;;;;4894431;29;20052;-43
2023/04/15 07:49:50;;;;;;;15.00;5.30;;;;;;;;;;4888017;29;20275;-45
2023/04/15 07:52:18;;;;;;;16.88;6.38;;;;;;;;;;4913272;29;20490;-43
2023/04/15 07:54:47;;;;;;;15.45;5.85;;;;;;;;;;4894217;29;20349;-43
2023/04/15 07:57:15;;;;;;;15.43;6.13;;;;;;;;;;4904598;29;20056;-44
2023/04/15 07:59:45;;;;;;;15.20;5.57;;;;;;;;;;4855459;29;20039;-44
2023/04/15 08:02:13;;;;;;;14.30;5.38;;;;;;;;;;4886098;29;20691;-44
2023/04/15 08:04:41;;;;;;;17.92;5.63;;;;;;;;;;4906999;29;20052;-45
2023/04/15 08:07:12;;;;;;;13.02;6.13;;;;;;;;;;4888212;29;20040;-43
2023/04/15 08:09:40;;;;;;;13.77;5.07;;;;;;;;;;4899288;29;20044;-44
2023/04/15 08:12:11;;;;;;;13.45;5.30;;;;;;;;;;4897014;29;20103;-45
2023/04/15 08:14:39;;;;;;;14.45;5.05;;;;;;;;;;4903936;29;20079;-44
2023/04/15 08:17:08;;;;;;;14.88;4.50;;;;;;;;;;4887845;29;20043;-43
2023/04/15 08:19:35;;;;;;;11.75;4.88;;;;;;;;;;4911878;29;20536;-46
2023/04/15 08:22:03;;;;;;;12.50;4.80;;;;;;;;;;4895219;29;20039;-45
2023/04/15 08:24:36;;;;;;;13.90;4.88;;;;;;;;;;4895493;28;20040;-43
2023/04/15 08:27:06;;;;;;;13.40;4.63;;;;;;;;;;4895042;29;20040;-43
2023/04/15 08:29:35;;;;;;;12.10;4.10;;;;;;;;;;4902450;29;20067;-44
2023/04/15 08:32:02;;;;;;;10.40;4.07;;;;;;;;;;4901905;29;20036;-45
2023/04/15 08:34:31;;;;;;;12.33;4.43;;;;;;;;;;4902904;29;20383;-44
2023/04/15 08:36:59;;;;;;;11.40;4.22;;;;;;;;;;4905411;29;20127;-45
2023/04/15 08:39:27;;;;;;;12.55;4.50;;;;;;;;;;4887355;29;20040;-44
2023/04/15 08:41:57;;;;;;;13.40;4.00;;;;;;;;;;4902365;28;20096;-45
2023/04/15 08:44:25;;;;;;;14.80;5.15;;;;;;;;;;4885774;29;20082;-45
2023/04/15 08:46:54;;;;;;;10.93;4.20;;;;;;;;;;4883381;29;20323;-44
2023/04/15 08:49:22;;;;;;;11.48;4.80;;;;;;;;;;4903099;29;20048;-44
2023/04/15 08:51:51;;;;;;;11.48;4.10;;;;;;;;;;4914129;29;20587;-44
2023/04/15 08:54:22;;;;;;;11.80;4.13;;;;;;;;;;4900204;29;20719;-44
2023/04/15 08:56:53;;;;;;;12.20;4.30;;;;;;;;;;4867996;29;22177;-43
2023/04/15 08:59:24;;;;;;;10.10;3.40;;;;;;;;;;4854097;29;20050;-46
2023/04/15 09:01:55;;;;;;;9.52;2.78;;;;;;;;;;4874565;29;20035;-45
2023/04/15 09:04:23;;;;;;;9.00;3.17;;;;;;;;;;4884794;29;20043;-45
2023/04/15 09:06:52;;;;;;;8.85;3.42;;;;;;;;;;4888223;29;20039;-44
2023/04/15 09:09:19;;;;;;;9.02;3.25;;;;;;;;;;4902173;29;20047;-44
2023/04/15 09:11:48;;;;;;;9.73;3.20;;;;;;;;;;4890311;29;20072;-44
2023/04/15 09:14:17;;;;;;;10.27;3.65;;;;;;;;;;4892008;29;20130;-44
2023/04/15 09:16:58;;;;;;;9.00;3.55;;;;;;;;;;4895354;29;20603;-44
2023/04/15 09:19:27;;;;;;;10.63;3.65;;;;;;;;;;4893582;29;20132;-46
2023/04/15 09:21:59;;;;;;;9.93;3.15;;;;;;;;;;4896129;29;20046;-44
2023/04/15 09:24:36;;;;;;;8.63;2.83;;;;;;;;;;4895123;29;20095;-46
2023/04/15 09:27:05;;;;;;;8.90;2.47;;;;;;;;;;4901027;29;20538;-46
2023/04/15 09:29:35;;;;;;;9.93;3.08;;;;;;;;;;4902225;29;20096;-45
2023/04/15 09:32:10;;;;;;;11.50;3.03;;;;;;;;;;4904453;29;20043;-45
2023/04/15 09:34:38;;;;;;;8.32;2.20;;;;;;;;;;4879974;29;20067;-45
2023/04/15 09:37:09;;;;;;;8.73;3.27;;;;;;;;;;4883441;29;20584;-44
2023/04/15 09:39:48;;;;;;;7.95;2.85;;;;;;;;;;4890433;29;20071;-45
2023/04/15 09:42:22;;;;;;;7.93;2.28;;;;;;;;;;4901065;29;20502;-45
2023/04/15 09:44:52;;;;;;;7.57;1.80;;;;;;;;;;4910897;29;20051;-47
2023/04/15 09:47:27;;;;;;;10.13;3.20;;;;;;;;;;4890725;29;20051;-45
2023/04/15 09:49:56;;;;;;;10.57;3.17;;;;;;;;;;4893250;29;20477;-45
2023/04/15 09:52:26;;;;;;;7.68;2.55;;;;;;;;;;4902169;29;20044;-44
2023/04/15 09:54:55;;;;;;;7.45;2.75;;;;;;;;;;4894251;29;20127;-45
2023/04/15 09:57:23;;;;;;;7.18;2.63;;;;;;;;;;4907436;29;20510;-45
2023/04/15 09:59:51;;;;;;;8.02;2.83;;;;;;;;;;4888124;29;20103;-46
2023/04/15 10:02:19;;;;;;;7.47;2.30;;;;;;;;;;4883130;29;20051;-44
2023/04/15 10:04:48;;;;;;;7.78;2.55;;;;;;;;;;4911812;29;20107;-44
2023/04/15 10:07:19;;;;;;;7.15;2.40;;;;;;;;;;4892767;29;20511;-44
2023/04/15 10:09:53;;;;;;;7.30;2.10;;;;;;;;;;4909788;29;20071;-44
2023/04/15 10:12:33;;;;;;;6.18;1.67;;;;;;;;;;4904937;29;20745;-46
2023/04/15 10:15:03;;;;;;;7.80;2.30;;;;;;;;;;4890571;29;20836;-45
2023/04/15 10:17:34;;;;;;;7.53;2.00;;;;;;;;;;4907527;29;20164;-46
2023/04/15 10:20:03;;;;;;;8.15;1.95;;;;;;;;;;4901350;29;20399;-44
2023/04/15 10:22:31;;;;;;;6.93;1.88;;;;;;;;;;4899869;29;20048;-45
2023/04/15 10:25:03;;;;;;;6.28;1.90;;;;;;;;;;4894502;29;20074;-47
2023/04/15 10:27:30;;;;;;;6.97;2.30;;;;;;;;;;4895137;29;20063;-44
2023/04/15 10:30:00;;;;;;;6.13;2.03;;;;;;;;;;4889319;29;20043;-47
2023/04/15 10:32:28;;;;;;;5.97;1.42;;;;;;;;;;4897897;29;20073;-44
2023/04/15 10:34:56;;;;;;;6.05;2.03;;;;;;;;;;4865435;29;20285;-45
2023/04/15 10:37:33;;;;;;;8.65;2.13;;;;;;;;;;4902434;29;20055;-45
2023/04/15 10:40:22;;;;;;;6.40;1.83;;;;;;;;;;4894690;29;20091;-47
2023/04/15 10:42:50;;;;;;;7.38;2.20;;;;;;;;;;4876820;29;20039;-48
2023/04/15 10:45:18;;;;;;;7.85;1.92;;;;;;;;;;4898141;29;20040;-45
2023/04/15 10:47:46;;;;;;;8.02;2.33;;;;;;;;;;4879208;29;20400;-44
2023/04/15 10:50:15;;;;;;;7.28;2.00;;;;;;;;;;4885327;29;20140;-45
2023/04/15 10:52:44;;;;;;;7.47;2.30;;;;;;;;;;4885414;29;20048;-43
2023/04/15 10:55:22;;;;;;;6.43;2.10;;;;;;;;;;4894978;29;20048;-44
2023/04/15 10:57:54;;;;;;;7.15;2.10;;;;;;;;;;4892320;28;20044;-44
2023/04/15 11:00:25;;;;;;;7.53;2.45;;;;;;;;;;4898832;29;20047;-45
2023/04/15 11:02:54;;;;;;;7.80;2.20;;;;;;;;;;4905533;29;20036;-48
2023/04/15 11:05:22;;;;;;;6.80;2.60;;;;;;;;;;4888103;29;20892;-45
2023/04/15 11:07:51;;;;;;;7.60;2.50;;;;;;;;;;4899780;29;20134;-44
2023/04/15 11:10:34;;;;;;;9.38;2.95;;;;;;;;;;4895396;29;20048;-45
2023/04/15 11:13:05;;;;;;;5.68;1.52;;;;;;;;;;4886647;29;20087;-48
2023/04/15 11:15:34;;;;;;;7.32;2.40;;;;;;;;;;4888674;29;20307;-46
2023/04/15 11:18:09;;;;;;;7.50;1.87;;;;;;;;;;4889933;29;20367;-48
2023/04/15 11:20:37;;;;;;;6.50;1.80;;;;;;;;;;4903825;29;20509;-47
2023/04/15 11:23:07;;;;;;;6.57;1.85;;;;;;;;;;4882464;29;20118;-44
2023/04/15 11:25:42;;;;;;;6.57;2.17;;;;;;;;;;4902062;29;20040;-44
2023/04/15 11:28:12;;;;;;;6.47;2.30;;;;;;;;;;4896908;29;20052;-45
2023/04/15 11:30:40;;;;;;;6.83;2.30;;;;;;;;;;4879098;29;20128;-46
2023/04/15 11:33:12;;;;;;;8.60;1.90;;;;;;;;;;4896418;29;20040;-45
2023/04/15 11:35:41;;;;;;;6.18;1.95;;;;;;;;;;4905800;29;20515;-45
2023/04/15 11:38:10;;;;;;;7.00;2.13;;;;;;;;;;4881276;29;20079;-45
2023/04/15 11:40:38;;;;;;;6.35;1.88;;;;;;;;;;4895129;29;20051;-46
2023/04/15 11:43:07;;;;;;;5.17;1.30;;;;;;;;;;4897594;29;20040;-44
2023/04/15 11:45:36;;;;;;;6.35;1.95;;;;;;;;;;4904892;29;20146;-46
2023/04/15 11:48:08;;;;;;;5.25;1.40;;;;;;;;;;4896109;29;20047;-45
2023/04/15 11:50:36;;;;;;;6.43;2.10;;;;;;;;;;4888070;29;20071;-45
2023/04/15 11:53:05;;;;;;;6.10;1.98;;;;;;;;;;4906228;29;20139;-47
2023/04/15 11:55:41;;;;;;;6.03;1.73;;;;;;;;;;4901854;29;20079;-47
2023/04/15 11:58:10;;;;;;;6.30;1.98;;;;;;;;;;4907878;29;20047;-46
2023/04/15 12:00:40;;;;;;;7.10;2.28;;;;;;;;;;4897358;29;20111;-48
2023/04/15 12:03:14;;;;;;;6.68;2.05;;;;;;;;;;4904447;29;20119;-46
2023/04/15 12:06:01;;;;;;;5.95;1.40;;;;;;;;;;4890008;29;20572;-46
2023/04/15 12:08:44;;;;;;;4.67;1.50;;;;;;;;;;4899453;29;20059;-46
2023/04/15 12:11:12;;;;;;;6.00;1.92;;;;;;;;;;4902610;29;20050;-45
2023/04/15 12:13:43;;;;;;;6.47;2.00;;;;;;;;;;4901615;29;20179;-45
2023/04/15 12:16:12;;;;;;;5.57;1.92;;;;;;;;;;4898894;29;20119;-48
2023/04/15 12:18:40;;;;;;;5.32;1.60;;;;;;;;;;4876813;29;20482;-45
2023/04/15 12:21:09;;;;;;;4.83;1.23;;;;;;;;;;4891017;29;20147;-47
2023/04/15 12:23:37;;;;;;;6.35;2.03;;;;;;;;;;4871881;29;20643;-48
2023/04/15 12:26:05;;;;;;;6.57;2.30;;;;;;;;;;4904955;29;20824;-46
2023/04/15 12:28:34;;;;;;;6.60;2.45;;;;;;;;;;4898954;29;20044;-45
2023/04/15 12:31:06;;;;;;;6.60;2.13;;;;;;;;;;4898712;29;20048;-46
2023/04/15 12:33:36;;;;;;;5.27;1.47;;;;;;;;;;4873606;29;20052;-46
2023/04/15 12:36:05;;;;;;;6.90;2.70;;;;;;;;;;4898117;29;20537;-46
2023/04/15 12:38:32;;;;;;;6.20;1.75;;;;;;;;;;4888381;29;20052;-47
2023/04/15 12:41:00;;;;;;;4.28;1.33;;;;;;;;;;4900524;29;20542;-46
2023/04/15 12:43:28;;;;;;;4.95;1.77;;;;;;;;;;4894151;29;20047;-45
2023/04/15 12:45:59;;;;;;;5.90;1.53;;;;;;;;;;4901930;29;20135;-46
2023/04/15 12:48:27;;;;;;;4.18;1.20;;;;;;;;;;4883163;29;20040;-45
2023/04/15 12:50:56;;;;;;;5.47;1.63;;;;;;;;;;4889737;29;20043;-46
2023/04/15 12:53:23;;;;;;;7.18;2.50;;;;;;;;;;4903773;29;20615;-45
2023/04/15 12:55:51;;;;;;;6.43;1.80;;;;;;;;;;4911734;29;20063;-45
2023/04/15 12:58:19;;;;;;;5.13;1.30;;;;;;;;;;4903894;29;20094;-45
2023/04/15 13:00:47;;;;;;;6.25;2.25;;;;;;;;;;4901347;29;20036;-45
2023/04/15 13:03:16;;;;;;;5.32;1.90;;;;;;;;;;4888071;29;20040;-45
2023/04/15 13:05:44;;;;;;;5.78;1.75;;;;;;;;;;4887693;29;20050;-45
2023/04/15 13:08:13;;;;;;;5.00;1.65;;;;;;;;;;4885707;29;20091;-45
2023/04/15 13:10:42;;;;;;;4.83;1.53;;;;;;;;;;4898785;29;20048;-45
2023/04/15 13:13:10;;;;;;;6.00;1.55;;;;;;;;;;4903423;29;20055;-46
2023/04/15 13:15:37;;;;;;;6.20;1.65;;;;;;;;;;4897139;29;20051;-46
2023/04/15 13:18:06;;;;;;;5.05;1.48;;;;;;;;;;4910881;29;20129;-45
2023/04/15 13:20:34;;;;;;;5.10;1.40;;;;;;;;;;4903369;29;20051;-45
2023/04/15 13:23:02;;;;;;;4.93;1.30;;;;;;;;;;4899725;29;20118;-45
2023/04/15 13:25:31;;;;;;;5.63;1.15;;;;;;;;;;4907769;29;20080;-45
2023/04/15 13:28:00;;;;;;;4.65;1.00;;;;;;;;;;4876097;29;20047;-46
2023/04/15 13:30:28;;;;;;;5.22;1.60;;;;;;;;;;4885475;29;20044;-46
2023/04/15 13:32:56;;;;;;;4.85;1.50;;;;;;;;;;4889056;29;20055;-45
2023/04/15 13:35:26;;;;;;;6.80;2.00;;;;;;;;;;4891642;29;20039;-50
2023/04/15 13:37:53;;;;;;;6.28;2.00;;;;;;;;;;4885886;29;20055;-46
2023/04/15 13:40:21;;;;;;;6.32;1.75;;;;;;;;;;4890797;29;20072;-47
2023/04/15 13:42:51;;;;;;;6.07;1.70;;;;;;;;;;4867294;29;20047;-46
2023/04/15 13:45:18;;;;;;;4.32;1.45;;;;;;;;;;4890792;29;20047;-46
2023/04/15 13:47:46;;;;;;;6.07;1.70;;;;;;;;;;4879443;29;20044;-45
2023/04/15 13:50:14;;;;;;;4.75;1.35;;;;;;;;;;4874417;29;20047;-45
2023/04/15 13:52:44;;;;;;;6.20;1.52;;;;;;;;;;4888777;29;20622;-46
2023/04/15 13:55:13;;;;;;;5.85;1.85;;;;;;;;;;4900944;29;20079;-45
2023/04/15 13:57:47;;;;;;;6.15;1.50;;;;;;;;;;4874038;29;20051;-46
2023/04/15 14:00:16;;;;;;;5.23;1.70;;;;;;;;;;4893049;29;20036;-45
2023/04/15 14:02:44;;;;;;;6.03;1.90;;;;;;;;;;4867777;29;20095;-45
2023/04/15 14:05:12;;;;;;;6.63;2.00;;;;;;;;;;4882264;29;20517;-45
2023/04/15 14:07:40;;;;;;;5.40;1.58;;;;;;;;;;4867838;29;20044;-45
2023/04/15 14:10:08;;;;;;;5.63;2.03;;;;;;;;;;4891040;29;20537;-44
2023/04/15 14:12:36;;;;;;;5.30;1.57;;;;;;;;;;4884361;29;20048;-44
2023/04/15 14:15:04;;;;;;;5.25;1.73;;;;;;;;;;4889965;29;20048;-45
2023/04/15 14:17:34;;;;;;;4.95;1.35;;;;;;;;;;4865031;29;20123;-45
2023/04/15 14:20:02;;;;;;;8.88;3.10;;;;;;;;;;4899768;29;20051;-47
2023/04/15 14:22:29;;;;;;;5.13;1.60;;;;;;;;;;4879008;29;20486;-46
2023/04/15 14:24:57;;;;;;;5.53;1.53;;;;;;;;;;4880826;29;20521;-45
2023/04/15 14:27:25;;;;;;;5.13;1.35;;;;;;;;;;4907342;29;20048;-45
2023/04/15 14:29:53;;;;;;;5.50;1.50;;;;;;;;;;4869485;29;20154;-45
2023/04/15 14:32:21;;;;;;;5.63;1.75;;;;;;;;;;4877147;29;20084;-44
2023/04/15 14:34:50;;;;;;;4.40;1.50;;;;;;;;;;4881371;29;21424;-47
2023/04/15 14:37:18;;;;;;;5.13;1.40;;;;;;;;;;4894807;29;20147;-47
2023/04/15 14:39:45;;;;;;;5.40;2.00;;;;;;;;;;4882557;29;20050;-45
2023/04/15 14:42:13;;;;;;;5.68;1.60;;;;;;;;;;4871119;29;20095;-45
2023/04/15 14:44:43;;;;;;;5.78;1.63;;;;;;;;;;4878405;29;20081;-46
2023/04/15 14:47:11;;;;;;;4.47;1.33;;;;;;;;;;4912069;29;20047;-45